sensor_id;sensor_type;location;lat;lon;timestamp;temperature;humidity
63017;DHT22;50274;45.640;11.756;2023-02-14T00:00:18;4.80;61.50
63017;DHT22;50274;45.640;11.756;2023-02-14T00:02:47;4.80;61.60
63017;DHT22;50274;45.640;11.756;2023-02-14T00:05:13;4.80;61.70
63017;DHT22;50274;45.640;11.756;2023-02-14T00:07:39;4.70;61.70
63017;DHT22;50274;45.640;11.756;2023-02-14T00:10:05;4.80;61.70
63017;DHT22;50274;45.640;11.756;2023-02-14T00:12:31;4.80;61.70
63017;DHT22;50274;45.640;11.756;2023-02-14T00:14:57;4.70;61.70
63017;DHT22;50274;45.640;11.756;2023-02-14T00:17:41;4.70;61.70
63017;DHT22;50274;45.640;11.756;2023-02-14T00:20:07;4.70;61.70
63017;DHT22;50274;45.640;11.756;2023-02-14T00:22:33;4.70;61.80
63017;DHT22;50274;45.640;11.756;2023-02-14T00:24:59;4.70;61.80
63017;DHT22;50274;45.640;11.756;2023-02-14T00:27:25;4.60;61.80
63017;DHT22;50274;45.640;11.756;2023-02-14T00:29:50;4.60;61.80
63017;DHT22;50274;45.640;11.756;2023-02-14T00:32:16;4.60;61.80
63017;DHT22;50274;45.640;11.756;2023-02-14T00:34:42;4.60;61.80
63017;DHT22;50274;45.640;11.756;2023-02-14T00:37:08;4.60;61.80
63017;DHT22;50274;45.640;11.756;2023-02-14T00:39:34;4.60;61.80
63017;DHT22;50274;45.640;11.756;2023-02-14T00:41:59;4.60;61.90
63017;DHT22;50274;45.640;11.756;2023-02-14T00:44:25;4.50;61.90
63017;DHT22;50274;45.640;11.756;2023-02-14T00:46:51;4.50;62.10
63017;DHT22;50274;45.640;11.756;2023-02-14T00:49:17;4.50;62.10
63017;DHT22;50274;45.640;11.756;2023-02-14T00:51:43;4.50;62.20
63017;DHT22;50274;45.640;11.756;2023-02-14T00:54:09;4.40;62.20
63017;DHT22;50274;45.640;11.756;2023-02-14T00:56:34;4.40;62.30
63017;DHT22;50274;45.640;11.756;2023-02-14T00:59:00;4.40;62.30
63017;DHT22;50274;45.640;11.756;2023-02-14T01:01:26;4.40;62.30
63017;DHT22;50274;45.640;11.756;2023-02-14T01:03:52;4.40;62.30
63017;DHT22;50274;45.640;11.756;2023-02-14T01:06:18;4.40;62.30
63017;DHT22;50274;45.640;11.756;2023-02-14T01:08:44;4.30;62.30
63017;DHT22;50274;45.640;11.756;2023-02-14T01:11:15;4.30;62.40
63017;DHT22;50274;45.640;11.756;2023-02-14T01:13:42;4.30;62.50
63017;DHT22;50274;45.640;11.756;2023-02-14T01:16:12;4.30;62.60
63017;DHT22;50274;45.640;11.756;2023-02-14T01:18:39;4.20;62.60
63017;DHT22;50274;45.640;11.756;2023-02-14T01:21:13;4.20;62.60
63017;DHT22;50274;45.640;11.756;2023-02-14T01:23:40;4.30;62.70
63017;DHT22;50274;45.640;11.756;2023-02-14T01:26:07;4.20;62.70
63017;DHT22;50274;45.640;11.756;2023-02-14T01:28:34;4.20;62.80
63017;DHT22;50274;45.640;11.756;2023-02-14T01:31:17;4.20;62.80
63017;DHT22;50274;45.640;11.756;2023-02-14T01:33:45;4.20;62.80
63017;DHT22;50274;45.640;11.756;2023-02-14T01:38:41;4.10;62.70
63017;DHT22;50274;45.640;11.756;2023-02-14T01:41:07;4.10;62.70
63017;DHT22;50274;45.640;11.756;2023-02-14T01:46:19;4.10;62.70
63017;DHT22;50274;45.640;11.756;2023-02-14T01:48:45;4.10;62.70
63017;DHT22;50274;45.640;11.756;2023-02-14T01:51:13;4.00;62.70
63017;DHT22;50274;45.640;11.756;2023-02-14T01:53:39;4.00;62.70
63017;DHT22;50274;45.640;11.756;2023-02-14T01:56:09;4.00;62.80
63017;DHT22;50274;45.640;11.756;2023-02-14T01:58:38;4.00;62.80
63017;DHT22;50274;45.640;11.756;2023-02-14T02:01:13;4.00;62.90
63017;DHT22;50274;45.640;11.756;2023-02-14T02:03:54;4.00;62.90
63017;DHT22;50274;45.640;11.756;2023-02-14T02:06:54;3.90;62.90
63017;DHT22;50274;45.640;11.756;2023-02-14T02:09:46;3.90;62.90
63017;DHT22;50274;45.640;11.756;2023-02-14T02:12:13;3.90;63.00
63017;DHT22;50274;45.640;11.756;2023-02-14T02:14:40;3.90;63.00
63017;DHT22;50274;45.640;11.756;2023-02-14T02:33:33;3.70;63.10
63017;DHT22;50274;45.640;11.756;2023-02-14T02:50:45;3.60;63.20
63017;DHT22;50274;45.640;11.756;2023-02-14T02:53:31;3.60;63.20
63017;DHT22;50274;45.640;11.756;2023-02-14T03:01:24;3.50;63.30
63017;DHT22;50274;45.640;11.756;2023-02-14T03:03:57;3.50;63.30
63017;DHT22;50274;45.640;11.756;2023-02-14T03:06:44;3.50;63.30
63017;DHT22;50274;45.640;11.756;2023-02-14T03:09:57;3.50;63.30
63017;DHT22;50274;45.640;11.756;2023-02-14T03:12:34;3.50;63.40
63017;DHT22;50274;45.640;11.756;2023-02-14T03:18:28;3.40;63.40
63017;DHT22;50274;45.640;11.756;2023-02-14T03:27:24;3.30;63.50
63017;DHT22;50274;45.640;11.756;2023-02-14T03:29:55;3.30;63.50
63017;DHT22;50274;45.640;11.756;2023-02-14T03:32:33;3.30;63.60
63017;DHT22;50274;45.640;11.756;2023-02-14T03:35:14;3.30;63.60
63017;DHT22;50274;45.640;11.756;2023-02-14T03:43:07;3.30;63.80
63017;DHT22;50274;45.640;11.756;2023-02-14T03:45:42;3.20;63.80
63017;DHT22;50274;45.640;11.756;2023-02-14T03:48:12;3.30;63.80
63017;DHT22;50274;45.640;11.756;2023-02-14T03:50:41;3.20;63.80
63017;DHT22;50274;45.640;11.756;2023-02-14T03:53:10;3.20;63.80
63017;DHT22;50274;45.640;11.756;2023-02-14T03:55:43;3.20;63.80
63017;DHT22;50274;45.640;11.756;2023-02-14T04:00:39;3.20;63.80
63017;DHT22;50274;45.640;11.756;2023-02-14T04:03:09;3.10;63.80
63017;DHT22;50274;45.640;11.756;2023-02-14T04:05:37;3.10;63.90
63017;DHT22;50274;45.640;11.756;2023-02-14T04:08:09;3.10;63.90
63017;DHT22;50274;45.640;11.756;2023-02-14T04:10:35;3.10;64.00
63017;DHT22;50274;45.640;11.756;2023-02-14T04:13:01;3.10;64.00
63017;DHT22;50274;45.640;11.756;2023-02-14T04:15:27;3.10;64.10
63017;DHT22;50274;45.640;11.756;2023-02-14T04:17:53;3.00;64.10
63017;DHT22;50274;45.640;11.756;2023-02-14T04:20:37;3.00;64.20
63017;DHT22;50274;45.640;11.756;2023-02-14T04:23:03;3.00;64.20
63017;DHT22;50274;45.640;11.756;2023-02-14T04:25:29;3.00;64.30
63017;DHT22;50274;45.640;11.756;2023-02-14T04:27:55;3.00;64.30
63017;DHT22;50274;45.640;11.756;2023-02-14T04:30:20;3.00;64.40
63017;DHT22;50274;45.640;11.756;2023-02-14T04:32:48;3.00;64.50
63017;DHT22;50274;45.640;11.756;2023-02-14T04:35:14;3.00;64.40
63017;DHT22;50274;45.640;11.756;2023-02-14T04:37:40;3.00;64.40
63017;DHT22;50274;45.640;11.756;2023-02-14T04:40:07;3.00;64.40
63017;DHT22;50274;45.640;11.756;2023-02-14T04:42:33;3.00;64.40
63017;DHT22;50274;45.640;11.756;2023-02-14T04:44:59;2.90;64.50
63017;DHT22;50274;45.640;11.756;2023-02-14T04:47:25;2.90;64.60
63017;DHT22;50274;45.640;11.756;2023-02-14T04:49:51;2.90;64.60
63017;DHT22;50274;45.640;11.756;2023-02-14T04:52:16;2.90;64.60
63017;DHT22;50274;45.640;11.756;2023-02-14T04:54:42;2.90;64.60
63017;DHT22;50274;45.640;11.756;2023-02-14T04:57:08;2.90;64.60
63017;DHT22;50274;45.640;11.756;2023-02-14T04:59:34;2.80;64.60
63017;DHT22;50274;45.640;11.756;2023-02-14T05:02:00;2.90;64.50
63017;DHT22;50274;45.640;11.756;2023-02-14T05:04:25;2.80;64.50
63017;DHT22;50274;45.640;11.756;2023-02-14T05:06:51;2.80;64.50
63017;DHT22;50274;45.640;11.756;2023-02-14T05:09:17;2.80;64.40
63017;DHT22;50274;45.640;11.756;2023-02-14T05:11:43;2.80;64.50
63017;DHT22;50274;45.640;11.756;2023-02-14T05:14:09;2.70;64.50
63017;DHT22;50274;45.640;11.756;2023-02-14T05:16:34;2.70;64.50
63017;DHT22;50274;45.640;11.756;2023-02-14T05:19:00;2.70;64.60
63017;DHT22;50274;45.640;11.756;2023-02-14T05:21:26;2.70;64.70
63017;DHT22;50274;45.640;11.756;2023-02-14T05:23:53;2.70;64.70
63017;DHT22;50274;45.640;11.756;2023-02-14T05:26:18;2.70;64.80
63017;DHT22;50274;45.640;11.756;2023-02-14T05:28:44;2.70;64.80
63017;DHT22;50274;45.640;11.756;2023-02-14T05:31:10;2.60;64.80
63017;DHT22;50274;45.640;11.756;2023-02-14T05:33:36;2.70;64.90
63017;DHT22;50274;45.640;11.756;2023-02-14T05:36:02;2.60;64.90
63017;DHT22;50274;45.640;11.756;2023-02-14T05:38:29;2.60;64.90
63017;DHT22;50274;45.640;11.756;2023-02-14T05:40:56;2.60;64.90
63017;DHT22;50274;45.640;11.756;2023-02-14T05:43:22;2.60;65.00
63017;DHT22;50274;45.640;11.756;2023-02-14T05:45:48;2.60;64.90
63017;DHT22;50274;45.640;11.756;2023-02-14T05:48:14;2.60;64.90
63017;DHT22;50274;45.640;11.756;2023-02-14T05:50:40;2.60;64.80
63017;DHT22;50274;45.640;11.756;2023-02-14T05:53:08;2.60;64.90
63017;DHT22;50274;45.640;11.756;2023-02-14T05:55:33;2.50;64.90
63017;DHT22;50274;45.640;11.756;2023-02-14T05:57:59;2.50;65.00
63017;DHT22;50274;45.640;11.756;2023-02-14T06:00:25;2.50;65.00
63017;DHT22;50274;45.640;11.756;2023-02-14T06:02:51;2.40;65.10
63017;DHT22;50274;45.640;11.756;2023-02-14T06:05:17;2.40;65.10
63017;DHT22;50274;45.640;11.756;2023-02-14T06:07:45;2.40;65.20
63017;DHT22;50274;45.640;11.756;2023-02-14T06:10:20;2.40;65.20
63017;DHT22;50274;45.640;11.756;2023-02-14T06:12:48;2.40;65.20
63017;DHT22;50274;45.640;11.756;2023-02-14T06:15:14;2.40;65.20
63017;DHT22;50274;45.640;11.756;2023-02-14T06:17:40;2.40;65.20
63017;DHT22;50274;45.640;11.756;2023-02-14T06:20:07;2.40;65.10
63017;DHT22;50274;45.640;11.756;2023-02-14T06:22:34;2.40;65.10
63017;DHT22;50274;45.640;11.756;2023-02-14T06:25:00;2.40;65.10
63017;DHT22;50274;45.640;11.756;2023-02-14T06:27:28;2.40;65.00
63017;DHT22;50274;45.640;11.756;2023-02-14T06:29:55;2.40;65.10
63017;DHT22;50274;45.640;11.756;2023-02-14T06:32:21;2.40;65.00
63017;DHT22;50274;45.640;11.756;2023-02-14T06:34:47;2.40;65.00
63017;DHT22;50274;45.640;11.756;2023-02-14T06:37:13;2.40;65.10
63017;DHT22;50274;45.640;11.756;2023-02-14T06:39:39;2.40;65.00
63017;DHT22;50274;45.640;11.756;2023-02-14T06:42:05;2.40;65.10
63017;DHT22;50274;45.640;11.756;2023-02-14T06:44:30;2.40;65.10
63017;DHT22;50274;45.640;11.756;2023-02-14T06:46:56;2.40;65.30
63017;DHT22;50274;45.640;11.756;2023-02-14T06:49:22;2.40;65.30
63017;DHT22;50274;45.640;11.756;2023-02-14T06:51:48;2.40;65.30
63017;DHT22;50274;45.640;11.756;2023-02-14T06:54:14;2.40;65.40
63017;DHT22;50274;45.640;11.756;2023-02-14T06:56:41;2.40;65.40
63017;DHT22;50274;45.640;11.756;2023-02-14T06:59:07;2.40;65.40
63017;DHT22;50274;45.640;11.756;2023-02-14T07:01:32;2.40;65.40
63017;DHT22;50274;45.640;11.756;2023-02-14T07:03:58;2.40;65.40
63017;DHT22;50274;45.640;11.756;2023-02-14T07:06:24;2.40;65.50
63017;DHT22;50274;45.640;11.756;2023-02-14T07:08:50;2.40;65.50
63017;DHT22;50274;45.640;11.756;2023-02-14T07:11:16;2.50;65.50
63017;DHT22;50274;45.640;11.756;2023-02-14T07:13:41;2.50;65.50
63017;DHT22;50274;45.640;11.756;2023-02-14T07:16:09;2.60;65.60
63017;DHT22;50274;45.640;11.756;2023-02-14T07:18:34;2.60;65.60
63017;DHT22;50274;45.640;11.756;2023-02-14T07:21:00;2.60;65.70
63017;DHT22;50274;45.640;11.756;2023-02-14T07:23:26;2.70;65.80
63017;DHT22;50274;45.640;11.756;2023-02-14T07:25:53;2.80;65.80
63017;DHT22;50274;45.640;11.756;2023-02-14T07:28:19;2.80;65.70
63017;DHT22;50274;45.640;11.756;2023-02-14T07:30:44;2.90;65.80
63017;DHT22;50274;45.640;11.756;2023-02-14T07:33:10;3.00;65.80
63017;DHT22;50274;45.640;11.756;2023-02-14T07:35:36;3.10;65.90
63017;DHT22;50274;45.640;11.756;2023-02-14T07:38:02;3.20;65.90
63017;DHT22;50274;45.640;11.756;2023-02-14T07:40:28;3.20;65.90
63017;DHT22;50274;45.640;11.756;2023-02-14T07:42:56;3.30;66.00
63017;DHT22;50274;45.640;11.756;2023-02-14T07:45:22;3.40;65.80
63017;DHT22;50274;45.640;11.756;2023-02-14T07:47:53;3.50;65.80
63017;DHT22;50274;45.640;11.756;2023-02-14T07:50:20;3.60;65.80
63017;DHT22;50274;45.640;11.756;2023-02-14T07:52:47;3.70;65.70
63017;DHT22;50274;45.640;11.756;2023-02-14T07:55:13;3.80;65.70
63017;DHT22;50274;45.640;11.756;2023-02-14T07:57:40;3.90;65.80
63017;DHT22;50274;45.640;11.756;2023-02-14T08:00:07;4.00;65.60
63017;DHT22;50274;45.640;11.756;2023-02-14T08:02:33;4.10;65.70
63017;DHT22;50274;45.640;11.756;2023-02-14T08:05:00;4.20;65.70
63017;DHT22;50274;45.640;11.756;2023-02-14T08:07:25;4.40;65.70
63017;DHT22;50274;45.640;11.756;2023-02-14T08:09:51;4.50;66.00
63017;DHT22;50274;45.640;11.756;2023-02-14T08:12:17;4.60;66.20
63017;DHT22;50274;45.640;11.756;2023-02-14T08:15:01;4.70;66.40
63017;DHT22;50274;45.640;11.756;2023-02-14T08:17:46;4.80;66.60
63017;DHT22;50274;45.640;11.756;2023-02-14T08:20:12;5.00;66.80
63017;DHT22;50274;45.640;11.756;2023-02-14T08:22:37;5.10;66.90
63017;DHT22;50274;45.640;11.756;2023-02-14T08:25:03;5.20;66.90
63017;DHT22;50274;45.640;11.756;2023-02-14T08:27:29;5.30;67.10
63017;DHT22;50274;45.640;11.756;2023-02-14T08:29:55;5.40;67.10
63017;DHT22;50274;45.640;11.756;2023-02-14T08:32:21;5.60;67.10
63017;DHT22;50274;45.640;11.756;2023-02-14T08:34:46;5.70;67.10
63017;DHT22;50274;45.640;11.756;2023-02-14T08:37:12;5.80;67.10
63017;DHT22;50274;45.640;11.756;2023-02-14T08:39:38;6.00;66.90
63017;DHT22;50274;45.640;11.756;2023-02-14T08:42:05;6.10;66.80
63017;DHT22;50274;45.640;11.756;2023-02-14T08:44:31;6.20;66.60
63017;DHT22;50274;45.640;11.756;2023-02-14T08:46:56;6.30;66.30
63017;DHT22;50274;45.640;11.756;2023-02-14T08:49:22;6.40;66.10
63017;DHT22;50274;45.640;11.756;2023-02-14T08:51:48;6.50;65.90
63017;DHT22;50274;45.640;11.756;2023-02-14T08:54:14;6.60;65.60
63017;DHT22;50274;45.640;11.756;2023-02-14T08:56:40;6.70;65.40
63017;DHT22;50274;45.640;11.756;2023-02-14T08:59:06;6.90;65.20
63017;DHT22;50274;45.640;11.756;2023-02-14T09:01:35;7.00;65.00
63017;DHT22;50274;45.640;11.756;2023-02-14T09:04:01;7.10;64.60
63017;DHT22;50274;45.640;11.756;2023-02-14T09:06:28;7.30;64.30
63017;DHT22;50274;45.640;11.756;2023-02-14T09:08:54;7.40;64.10
63017;DHT22;50274;45.640;11.756;2023-02-14T09:11:22;7.50;63.90
63017;DHT22;50274;45.640;11.756;2023-02-14T09:13:49;7.60;63.60
63017;DHT22;50274;45.640;11.756;2023-02-14T09:16:16;7.80;63.50
63017;DHT22;50274;45.640;11.756;2023-02-14T09:18:43;7.90;63.20
63017;DHT22;50274;45.640;11.756;2023-02-14T09:21:14;8.00;63.00
63017;DHT22;50274;45.640;11.756;2023-02-14T09:23:40;8.10;62.90
63017;DHT22;50274;45.640;11.756;2023-02-14T09:26:08;8.30;62.70
63017;DHT22;50274;45.640;11.756;2023-02-14T09:28:35;8.50;62.50
63017;DHT22;50274;45.640;11.756;2023-02-14T09:31:13;8.60;62.30
63017;DHT22;50274;45.640;11.756;2023-02-14T09:33:39;8.70;61.80
63017;DHT22;50274;45.640;11.756;2023-02-14T09:36:23;8.90;61.90
63017;DHT22;50274;45.640;11.756;2023-02-14T09:39:07;9.10;61.70
63017;DHT22;50274;45.640;11.756;2023-02-14T09:47:10;9.50;60.20
63017;DHT22;50274;45.640;11.756;2023-02-14T09:49:41;9.70;60.00
63017;DHT22;50274;45.640;11.756;2023-02-14T09:52:12;9.80;59.60
63017;DHT22;50274;45.640;11.756;2023-02-14T09:54:41;10.00;59.50
63017;DHT22;50274;45.640;11.756;2023-02-14T09:59:55;10.30;58.40
63017;DHT22;50274;45.640;11.756;2023-02-14T10:02:55;10.50;58.10
63017;DHT22;50274;45.640;11.756;2023-02-14T10:05:27;10.70;57.60
63017;DHT22;50274;45.640;11.756;2023-02-14T10:11:05;11.00;57.10
63017;DHT22;50274;45.640;11.756;2023-02-14T10:13:48;11.10;56.50
63017;DHT22;50274;45.640;11.756;2023-02-14T10:16:32;11.30;56.20
63017;DHT22;50274;45.640;11.756;2023-02-14T10:21:53;11.60;56.00
63017;DHT22;50274;45.640;11.756;2023-02-14T10:24:42;11.80;55.60
63017;DHT22;50274;45.640;11.756;2023-02-14T10:27:29;12.00;54.80
63017;DHT22;50274;45.640;11.756;2023-02-14T10:29:57;12.30;54.30
63017;DHT22;50274;45.640;11.756;2023-02-14T10:38:22;13.00;52.60
63017;DHT22;50274;45.640;11.756;2023-02-14T10:41:18;13.20;52.10
63017;DHT22;50274;45.640;11.756;2023-02-14T10:44:03;13.40;51.80
63017;DHT22;50274;45.640;11.756;2023-02-14T10:49:41;13.70;50.70
63017;DHT22;50274;45.640;11.756;2023-02-14T10:54:59;14.00;50.00
63017;DHT22;50274;45.640;11.756;2023-02-14T10:57:32;14.10;49.70
63017;DHT22;50274;45.640;11.756;2023-02-14T11:00:06;14.30;49.00
63017;DHT22;50274;45.640;11.756;2023-02-14T11:02:38;14.50;48.80
63017;DHT22;50274;45.640;11.756;2023-02-14T11:05:07;14.80;48.20
63017;DHT22;50274;45.640;11.756;2023-02-14T11:07:33;14.90;47.20
63017;DHT22;50274;45.640;11.756;2023-02-14T11:09:59;15.00;46.80
63017;DHT22;50274;45.640;11.756;2023-02-14T11:12:39;15.10;45.10
63017;DHT22;50274;45.640;11.756;2023-02-14T11:17:34;15.40;45.70
63017;DHT22;50274;45.640;11.756;2023-02-14T11:20:24;15.60;45.70
63017;DHT22;50274;45.640;11.756;2023-02-14T11:22:51;15.70;44.60
63017;DHT22;50274;45.640;11.756;2023-02-14T11:25:22;15.80;44.20
63017;DHT22;50274;45.640;11.756;2023-02-14T11:27:55;16.00;44.00
63017;DHT22;50274;45.640;11.756;2023-02-14T11:30:39;16.10;44.10
63017;DHT22;50274;45.640;11.756;2023-02-14T11:35:53;16.40;43.60
63017;DHT22;50274;45.640;11.756;2023-02-14T11:38:34;16.50;43.20
63017;DHT22;50274;45.640;11.756;2023-02-14T11:41:02;16.60;42.90
63017;DHT22;50274;45.640;11.756;2023-02-14T11:43:48;16.70;42.60
63017;DHT22;50274;45.640;11.756;2023-02-14T11:49:05;16.90;42.30
63017;DHT22;50274;45.640;11.756;2023-02-14T11:51:41;17.10;42.40
63017;DHT22;50274;45.640;11.756;2023-02-14T11:54:21;17.20;42.50
63017;DHT22;50274;45.640;11.756;2023-02-14T11:56:53;17.30;41.70
63017;DHT22;50274;45.640;11.756;2023-02-14T11:59:31;17.40;41.30
63017;DHT22;50274;45.640;11.756;2023-02-14T12:02:00;17.30;40.00
63017;DHT22;50274;45.640;11.756;2023-02-14T12:04:34;17.50;40.40
63017;DHT22;50274;45.640;11.756;2023-02-14T12:07:22;17.60;40.50
63017;DHT22;50274;45.640;11.756;2023-02-14T12:10:15;17.80;40.10
63017;DHT22;50274;45.640;11.756;2023-02-14T12:12:55;17.90;40.20
63017;DHT22;50274;45.640;11.756;2023-02-14T12:15:27;18.00;40.30
63017;DHT22;50274;45.640;11.756;2023-02-14T12:26:52;18.30;39.40
63017;DHT22;50274;45.640;11.756;2023-02-14T12:29:33;18.40;39.50
63017;DHT22;50274;45.640;11.756;2023-02-14T12:32:11;18.50;39.30
63017;DHT22;50274;45.640;11.756;2023-02-14T12:34:39;18.50;38.90
63017;DHT22;50274;45.640;11.756;2023-02-14T12:37:22;18.50;38.80
63017;DHT22;50274;45.640;11.756;2023-02-14T12:40:10;18.60;38.70
63017;DHT22;50274;45.640;11.756;2023-02-14T12:59:31;18.50;38.10
63017;DHT22;50274;45.640;11.756;2023-02-14T13:07:20;18.50;37.70
63017;DHT22;50274;45.640;11.756;2023-02-14T13:10:04;18.60;37.90
63017;DHT22;50274;45.640;11.756;2023-02-14T13:15:11;18.60;37.60
63017;DHT22;50274;45.640;11.756;2023-02-14T13:20:48;18.70;37.60
63017;DHT22;50274;45.640;11.756;2023-02-14T13:26:03;18.60;37.30
63017;DHT22;50274;45.640;11.756;2023-02-14T13:28:31;18.70;37.50
63017;DHT22;50274;45.640;11.756;2023-02-14T13:30:58;18.70;37.70
63017;DHT22;50274;45.640;11.756;2023-02-14T13:33:41;18.70;37.90
63017;DHT22;50274;45.640;11.756;2023-02-14T13:36:11;18.80;38.10
63017;DHT22;50274;45.640;11.756;2023-02-14T13:38:43;18.90;38.00
63017;DHT22;50274;45.640;11.756;2023-02-14T13:41:11;18.80;37.10
63017;DHT22;50274;45.640;11.756;2023-02-14T13:43:45;18.70;37.50
63017;DHT22;50274;45.640;11.756;2023-02-14T13:46:12;18.80;37.50
63017;DHT22;50274;45.640;11.756;2023-02-14T13:48:42;18.80;37.70
63017;DHT22;50274;45.640;11.756;2023-02-14T13:51:09;18.80;37.70
63017;DHT22;50274;45.640;11.756;2023-02-14T13:53:43;18.80;37.50
63017;DHT22;50274;45.640;11.756;2023-02-14T13:58:54;18.80;37.70
63017;DHT22;50274;45.640;11.756;2023-02-14T14:01:42;18.80;37.90
63017;DHT22;50274;45.640;11.756;2023-02-14T14:07:22;18.70;38.10
63017;DHT22;50274;45.640;11.756;2023-02-14T14:18:29;18.50;38.40
63017;DHT22;50274;45.640;11.756;2023-02-14T14:20:44;18.40;38.70
63017;DHT22;50274;45.640;11.756;2023-02-14T14:23:32;18.40;38.50
63017;DHT22;50274;45.640;11.756;2023-02-14T14:25:59;18.30;38.70
63017;DHT22;50274;45.640;11.756;2023-02-14T14:28:27;18.30;39.00
63017;DHT22;50274;45.640;11.756;2023-02-14T14:30:55;18.20;39.10
63017;DHT22;50274;45.640;11.756;2023-02-14T14:33:33;18.10;39.20
63017;DHT22;50274;45.640;11.756;2023-02-14T14:36:05;18.00;39.20
63017;DHT22;50274;45.640;11.756;2023-02-14T14:38:32;17.90;39.60
63017;DHT22;50274;45.640;11.756;2023-02-14T14:41:00;17.80;39.80
63017;DHT22;50274;45.640;11.756;2023-02-14T14:43:30;17.70;40.10
63017;DHT22;50274;45.640;11.756;2023-02-14T14:45:58;17.70;40.30
63017;DHT22;50274;45.640;11.756;2023-02-14T14:48:32;17.60;40.10
63017;DHT22;50274;45.640;11.756;2023-02-14T14:51:00;17.40;40.60
63017;DHT22;50274;45.640;11.756;2023-02-14T14:56:00;17.00;41.30
63017;DHT22;50274;45.640;11.756;2023-02-14T14:58:40;16.80;41.60
63017;DHT22;50274;45.640;11.756;2023-02-14T15:01:10;16.70;42.10
63017;DHT22;50274;45.640;11.756;2023-02-14T15:03:38;16.60;42.30
63017;DHT22;50274;45.640;11.756;2023-02-14T15:06:19;16.40;42.60
63017;DHT22;50274;45.640;11.756;2023-02-14T15:08:46;16.30;42.80
63017;DHT22;50274;45.640;11.756;2023-02-14T15:11:24;16.10;43.20
63017;DHT22;50274;45.640;11.756;2023-02-14T15:14:16;16.00;43.50
63017;DHT22;50274;45.640;11.756;2023-02-14T15:19:21;15.80;44.00
63017;DHT22;50274;45.640;11.756;2023-02-14T15:21:48;15.70;44.40
63017;DHT22;50274;45.640;11.756;2023-02-14T15:24:16;15.60;44.50
63017;DHT22;50274;45.640;11.756;2023-02-14T15:26:45;15.60;44.80
63017;DHT22;50274;45.640;11.756;2023-02-14T15:29:21;15.50;45.00
63017;DHT22;50274;45.640;11.756;2023-02-14T15:31:48;15.40;45.30
63017;DHT22;50274;45.640;11.756;2023-02-14T15:34:14;15.30;45.50
63017;DHT22;50274;45.640;11.756;2023-02-14T15:36:41;15.20;45.70
63017;DHT22;50274;45.640;11.756;2023-02-14T15:39:13;15.10;45.90
63017;DHT22;50274;45.640;11.756;2023-02-14T15:41:44;15.00;46.20
63017;DHT22;50274;45.640;11.756;2023-02-14T15:44:21;15.00;46.30
63017;DHT22;50274;45.640;11.756;2023-02-14T15:46:53;14.80;46.50
63017;DHT22;50274;45.640;11.756;2023-02-14T15:49:23;14.80;46.50
63017;DHT22;50274;45.640;11.756;2023-02-14T15:51:54;14.70;46.70
63017;DHT22;50274;45.640;11.756;2023-02-14T15:54:38;14.70;46.80
63017;DHT22;50274;45.640;11.756;2023-02-14T15:57:14;14.60;47.00
63017;DHT22;50274;45.640;11.756;2023-02-14T15:59:41;14.50;47.10
63017;DHT22;50274;45.640;11.756;2023-02-14T16:04:48;14.40;47.30
63017;DHT22;50274;45.640;11.756;2023-02-14T16:09:49;14.20;47.70
63017;DHT22;50274;45.640;11.756;2023-02-14T16:12:42;14.10;47.80
63017;DHT22;50274;45.640;11.756;2023-02-14T16:15:22;14.00;47.80
63017;DHT22;50274;45.640;11.756;2023-02-14T16:17:48;13.90;48.10
63017;DHT22;50274;45.640;11.756;2023-02-14T16:23:37;13.70;48.40
63017;DHT22;50274;45.640;11.756;2023-02-14T16:26:07;13.60;48.60
63017;DHT22;50274;45.640;11.756;2023-02-14T16:28:33;13.50;48.80
63017;DHT22;50274;45.640;11.756;2023-02-14T16:31:02;13.40;49.00
63017;DHT22;50274;45.640;11.756;2023-02-14T16:33:33;13.30;49.10
63017;DHT22;50274;45.640;11.756;2023-02-14T16:38:49;13.20;49.50
63017;DHT22;50274;45.640;11.756;2023-02-14T16:41:17;13.10;49.70
63017;DHT22;50274;45.640;11.756;2023-02-14T16:43:44;13.00;49.80
63017;DHT22;50274;45.640;11.756;2023-02-14T16:46:12;13.00;50.00
63017;DHT22;50274;45.640;11.756;2023-02-14T16:48:38;12.90;50.10
63017;DHT22;50274;45.640;11.756;2023-02-14T16:51:04;12.80;50.30
63017;DHT22;50274;45.640;11.756;2023-02-14T16:53:30;12.70;50.40
63017;DHT22;50274;45.640;11.756;2023-02-14T16:55:56;12.70;50.60
63017;DHT22;50274;45.640;11.756;2023-02-14T16:58:27;12.60;50.70
63017;DHT22;50274;45.640;11.756;2023-02-14T17:00:54;12.50;50.90
63017;DHT22;50274;45.640;11.756;2023-02-14T17:03:22;12.40;51.00
63017;DHT22;50274;45.640;11.756;2023-02-14T17:05:48;12.40;51.20
63017;DHT22;50274;45.640;11.756;2023-02-14T17:08:14;12.30;51.30
63017;DHT22;50274;45.640;11.756;2023-02-14T17:10:41;12.20;51.40
63017;DHT22;50274;45.640;11.756;2023-02-14T17:13:07;12.10;51.60
63017;DHT22;50274;45.640;11.756;2023-02-14T17:15:34;12.00;51.80
63017;DHT22;50274;45.640;11.756;2023-02-14T17:18:08;11.90;51.90
63017;DHT22;50274;45.640;11.756;2023-02-14T17:20:34;11.80;52.10
63017;DHT22;50274;45.640;11.756;2023-02-14T17:23:00;11.80;52.20
63017;DHT22;50274;45.640;11.756;2023-02-14T17:25:26;11.70;52.40
63017;DHT22;50274;45.640;11.756;2023-02-14T17:27:51;11.60;52.50
63017;DHT22;50274;45.640;11.756;2023-02-14T17:30:17;11.50;52.60
63017;DHT22;50274;45.640;11.756;2023-02-14T17:32:43;11.50;52.80
63017;DHT22;50274;45.640;11.756;2023-02-14T17:35:10;11.30;52.80
63017;DHT22;50274;45.640;11.756;2023-02-14T17:37:38;11.30;53.00
63017;DHT22;50274;45.640;11.756;2023-02-14T17:40:05;11.20;53.10
63017;DHT22;50274;45.640;11.756;2023-02-14T17:42:32;11.10;53.20
63017;DHT22;50274;45.640;11.756;2023-02-14T17:44:58;11.00;53.30
63017;DHT22;50274;45.640;11.756;2023-02-14T17:47:24;10.90;53.40
63017;DHT22;50274;45.640;11.756;2023-02-14T17:49:49;10.80;53.60
63017;DHT22;50274;45.640;11.756;2023-02-14T17:52:19;10.70;53.70
63017;DHT22;50274;45.640;11.756;2023-02-14T17:54:46;10.70;53.80
63017;DHT22;50274;45.640;11.756;2023-02-14T17:57:12;10.60;53.90
63017;DHT22;50274;45.640;11.756;2023-02-14T17:59:38;10.50;54.00
63017;DHT22;50274;45.640;11.756;2023-02-14T18:02:04;10.50;54.10
63017;DHT22;50274;45.640;11.756;2023-02-14T18:04:31;10.40;54.30
63017;DHT22;50274;45.640;11.756;2023-02-14T18:06:59;10.30;54.40
63017;DHT22;50274;45.640;11.756;2023-02-14T18:09:25;10.30;54.50
63017;DHT22;50274;45.640;11.756;2023-02-14T18:11:51;10.30;54.50
63017;DHT22;50274;45.640;11.756;2023-02-14T18:14:17;10.20;54.60
63017;DHT22;50274;45.640;11.756;2023-02-14T18:16:44;10.10;54.70
63017;DHT22;50274;45.640;11.756;2023-02-14T18:19:10;10.10;54.90
63017;DHT22;50274;45.640;11.756;2023-02-14T18:21:41;10.00;55.00
63017;DHT22;50274;45.640;11.756;2023-02-14T18:24:08;9.90;55.10